Alice Town, Bahamas

4:42 AM EDT on August 29, 2015 (GMT -0400)
IBIMINIA2 | | Change Station
CLOSE
Current Station
Personal Weather Station
Location: Alice Town, BIMINI
Elevation: 0 ft
Nearby Weather Stations

Elev 0 ft 25.73 °N, 79.30 °W | Updated 13 minutes ago

Mostly Cloudy
Mostly Cloudy
84.2 °F
Feels Like 96 °F
N
2.0
Wind Variable Wind from East

Today
High -- | Low -- °F
--% Chance of Precip.
Yesterday
High -- | Low -- °F
Precip. -- in
6:56 AM 7:39 PM
Full, 100% visible
Pressure 29.99 in
Visibility 10.0 miles
Clouds Few 2100 ft
Scattered Clouds 2500 ft
Mostly Cloudy 3300 ft
Mostly Cloudy 25000 ft
Heat Index 96 °F
Dew Point 79 °F
Humidity 84%
Rainfall 0.00 in
Snow Depth Not available.
UV 0 out of 12
Pollen Not available.
Air Quality Not available.
Flu Activity Not available.
METAR KFLL 290753Z 11011KT 10SM FEW021 SCT025 BKN033 BKN250 29/25 A2999 RMK AO2 SLP155 T02890250
Pressure 29.99 in
Visibility 10.0 miles
Clouds Few 2100 ft
Scattered Clouds 2500 ft
Mostly Cloudy 3300 ft
Mostly Cloudy 25000 ft
Heat Index 96 °F
Dew Point 79 °F
Humidity 84%
Rainfall 0.00 in
Snow Depth Not available.
UV 0 out of 12
Pollen Not available.
Air Quality Not available.
Flu Activity Not available.
METAR KFLL 290753Z 11011KT 10SM FEW021 SCT025 BKN033 BKN250 29/25 A2999 RMK AO2 SLP155 T02890250

10-Day Weather Forecast

×

Almanac

Astronomy

Aug. 29, 2015 Rise Set
Actual Time
Civil Twilight
Nautical Twilight
Astronomical Twilight
Moon
Length of Visible Light
Length of Day
Tomorrow will be .
, % of the Moon is Illuminated

Today's Extremes

Country Highs Country Lows

Community

WunderPhotos

Upload Photos

1,850,634 photos uploaded!

WunderBlogs® & News

Nearby

Air Quality

  Air Quality AQ Index Pollutant
Not available.

Snow Depth

Station Depth Elevation

Earthquake Activity

City Distance Mag. Time & Date
Minimum magnitude displayed is 2.5.

Coastal Water Temperatures

Place Temperature

Stations

Nearby Weather Stations

Station Location Temp. Windchill Dew Point Humidity Wind Precip. Elev Updated Type